Time;durP1;ratioP1;P1;durP2;ratioP2;P2;SDS_P1;SDS_P2;PMS_P1;PMS_P2;Temp;Humidity;BMP_temperature;BMP_pressure;BME280_temperature;BME280_humidity;BME280_pressure;Samples;Min_cycle;Max_cycle;Signal;HPM_P1;HPM_P2
2022/04/05 00:01:04;;;;;;;3.90;1.10;;;18.40;52.40;;;;;;6159610;23;20181;-84
2022/04/05 00:03:35;;;;;;;6.32;1.30;;;18.40;52.80;;;;;;6209839;23;20546;-85
2022/04/05 00:06:03;;;;;;;4.07;1.10;;;18.40;52.80;;;;;;6184502;23;20145;-84
2022/04/05 00:08:34;;;;;;;4.03;1.10;;;18.40;52.80;;;;;;6183903;23;20192;-83
2022/04/05 00:11:01;;;;;;;4.95;1.38;;;18.40;52.30;;;;;;6159513;23;20156;-85
2022/04/05 00:13:29;;;;;;;3.55;1.40;;;18.30;52.80;;;;;;6183962;23;20156;-85
2022/04/05 00:16:00;;;;;;;6.32;1.30;;;18.30;52.80;;;;;;6183688;23;20151;-83
2022/04/05 00:18:32;;;;;;;5.60;1.17;;;18.30;53.20;;;;;;6184238;23;20180;-84
2022/04/05 00:21:02;;;;;;;3.15;1.10;;;18.40;52.60;;;;;;6183767;23;20200;-84
2022/04/05 00:23:32;;;;;;;5.40;1.20;;;18.40;52.90;;;;;;6184156;23;20178;-84
2022/04/05 00:25:59;;;;;;;7.00;1.05;;;18.30;53.20;;;;;;6184354;23;20146;-85
2022/04/05 00:28:31;;;;;;;4.47;1.30;;;18.30;53.10;;;;;;6159036;23;20157;-84
2022/04/05 00:30:57;;;;;;;4.65;1.38;;;18.20;53.00;;;;;;6158345;23;20150;-84
2022/04/05 00:33:27;;;;;;;8.10;1.50;;;18.30;53.10;;;;;;6234786;23;20137;-84
2022/04/05 00:35:58;;;;;;;3.85;1.15;;;18.30;53.10;;;;;;6183987;23;20169;-83
2022/04/05 00:38:27;;;;;;;3.90;1.13;;;18.30;53.20;;;;;;6183659;23;20203;-84
2022/04/05 00:40:54;;;;;;;3.10;1.02;;;18.30;52.80;;;;;;6134235;23;20578;-83
2022/04/05 00:43:25;;;;;;;7.43;1.38;;;18.20;52.90;;;;;;6159558;23;20149;-84
2022/04/05 00:45:54;;;;;;;6.65;1.33;;;18.20;53.20;;;;;;6159265;23;20169;-84
2022/04/05 00:48:31;;;;;;;2.75;1.10;;;18.30;52.70;;;;;;6210533;23;20566;-84
2022/04/05 00:51:01;;;;;;;5.82;1.50;;;18.20;52.90;;;;;;6161755;23;20160;-84
2022/04/05 00:53:27;;;;;;;2.78;1.10;;;18.20;54.10;;;;;;6158661;23;20146;-83
2022/04/05 00:55:54;;;;;;;1.90;1.00;;;18.20;52.90;;;;;;6234539;23;20156;-83
2022/04/05 00:58:20;;;;;;;2.90;1.08;;;18.20;53.20;;;;;;6209812;23;20589;-84
2022/04/05 01:00:52;;;;;;;4.38;1.50;;;18.20;53.20;;;;;;6235052;23;20145;-83
2022/04/05 01:03:19;;;;;;;5.63;1.17;;;18.20;53.30;;;;;;6160527;23;20236;-84
2022/04/05 01:05:46;;;;;;;4.35;1.17;;;18.20;53.70;;;;;;6158581;23;20153;-83
2022/04/05 01:08:15;;;;;;;5.43;1.20;;;18.20;53.50;;;;;;6233992;23;20130;-84
2022/04/05 01:10:41;;;;;;;5.10;1.23;;;18.20;53.30;;;;;;6183769;23;20205;-83
2022/04/05 01:13:12;;;;;;;2.63;1.25;;;18.20;53.60;;;;;;6209317;23;20595;-84
2022/04/05 01:15:40;;;;;;;1.92;1.00;;;18.20;53.50;;;;;;6208695;23;20150;-83
2022/04/05 01:18:09;;;;;;;10.02;1.70;;;18.20;53.50;;;;;;6209285;23;20134;-84
2022/04/05 01:20:37;;;;;;;6.22;1.20;;;18.30;53.30;;;;;;6184089;23;20160;-84
2022/04/05 01:23:05;;;;;;;3.17;1.20;;;18.20;53.60;;;;;;6183113;23;20149;-84
2022/04/05 01:25:35;;;;;;;6.53;1.38;;;18.10;53.80;;;;;;6184121;23;20203;-85
2022/04/05 01:28:05;;;;;;;5.35;1.20;;;18.20;53.90;;;;;;6184475;23;20153;-84
2022/04/05 01:30:33;;;;;;;5.22;1.50;;;18.20;53.70;;;;;;6158886;23;20252;-84
2022/04/05 01:33:00;;;;;;;2.72;1.33;;;18.10;53.60;;;;;;6184153;23;20204;-83
2022/04/05 01:35:28;;;;;;;2.47;1.10;;;18.10;53.50;;;;;;6184304;23;20149;-84
2022/04/05 01:37:57;;;;;;;2.85;1.30;;;18.10;53.40;;;;;;6159302;23;20146;-83
2022/04/05 01:40:28;;;;;;;3.63;1.00;;;18.10;53.70;;;;;;6159684;23;20160;-83
2022/04/05 01:42:56;;;;;;;3.53;0.88;;;18.10;53.80;;;;;;6158598;23;20160;-84
2022/04/05 01:45:26;;;;;;;4.03;1.10;;;18.10;53.90;;;;;;6158953;23;20213;-84
2022/04/05 01:47:56;;;;;;;1.90;1.02;;;18.10;54.10;;;;;;6159401;23;20153;-83
2022/04/05 01:50:27;;;;;;;4.25;1.25;;;18.10;54.10;;;;;;6158999;23;20240;-83
2022/04/05 01:52:53;;;;;;;5.43;1.08;;;18.00;53.00;;;;;;6158746;23;20149;-84
2022/04/05 01:55:22;;;;;;;3.95;1.23;;;18.10;53.50;;;;;;6184329;23;20199;-84
2022/04/05 01:57:51;;;;;;;6.35;1.10;;;18.10;54.10;;;;;;6183469;23;20146;-84
2022/04/05 02:00:20;;;;;;;2.67;1.00;;;18.10;53.50;;;;;;6183205;23;20616;-84
2022/04/05 02:02:49;;;;;;;2.00;0.93;;;18.10;53.90;;;;;;6183851;23;20179;-85
2022/04/05 02:05:18;;;;;;;7.85;1.48;;;18.10;53.40;;;;;;6157925;23;20154;-84
2022/04/05 02:07:48;;;;;;;2.70;0.90;;;18.10;53.80;;;;;;6158978;23;20232;-84
2022/04/05 02:10:19;;;;;;;2.42;1.10;;;18.10;53.80;;;;;;6182770;23;20185;-83
2022/04/05 02:12:48;;;;;;;1.70;1.00;;;18.10;53.90;;;;;;6159050;23;20153;-83
2022/04/05 02:15:20;;;;;;;6.13;1.23;;;18.10;53.90;;;;;;6182854;23;20149;-85
2022/04/05 02:17:48;;;;;;;3.05;1.23;;;18.10;54.00;;;;;;6183225;23;20149;-84
2022/04/05 02:20:18;;;;;;;3.42;1.10;;;18.00;54.10;;;;;;6182548;23;20157;-84
2022/04/05 02:22:45;;;;;;;2.70;1.05;;;18.10;54.10;;;;;;6183294;23;20157;-86
2022/04/05 02:25:12;;;;;;;3.47;1.10;;;18.00;53.90;;;;;;6158160;23;20157;-84
2022/04/05 02:27:40;;;;;;;3.45;1.08;;;18.00;54.00;;;;;;6158127;23;20155;-85
2022/04/05 02:30:08;;;;;;;3.88;1.13;;;18.00;54.00;;;;;;6234167;23;20249;-83
2022/04/05 02:32:33;;;;;;;2.45;0.98;;;18.00;53.90;;;;;;6208417;23;20188;-83
2022/04/05 02:34:59;;;;;;;3.72;1.10;;;18.10;53.90;;;;;;6209428;23;20133;-83
2022/04/05 02:37:27;;;;;;;3.35;1.15;;;18.10;53.90;;;;;;6233729;23;20442;-85
2022/04/05 02:39:57;;;;;;;4.65;1.45;;;18.00;54.00;;;;;;6182457;23;20203;-83
2022/04/05 02:42:27;;;;;;;3.80;1.15;;;18.00;53.80;;;;;;6157862;23;20205;-83
2022/04/05 02:44:53;;;;;;;2.65;1.17;;;18.00;54.10;;;;;;6158186;23;20216;-84
2022/04/05 02:47:19;;;;;;;5.78;1.00;;;18.00;54.10;;;;;;6260295;23;20138;-84
2022/04/05 02:49:49;;;;;;;4.65;1.20;;;18.00;54.20;;;;;;6208535;23;20174;-84
2022/04/05 02:52:17;;;;;;;4.22;1.10;;;18.00;54.10;;;;;;6183024;23;20149;-84
2022/04/05 02:54:44;;;;;;;2.72;1.13;;;18.00;54.30;;;;;;6183238;23;20159;-84
2022/04/05 02:57:12;;;;;;;5.03;1.15;;;18.00;54.20;;;;;;6208401;23;20566;-83
2022/04/05 02:59:42;;;;;;;4.93;1.30;;;18.00;54.10;;;;;;6182908;23;20593;-83
2022/04/05 03:02:08;;;;;;;4.32;1.00;;;18.00;54.10;;;;;;6158355;23;20177;-84
2022/04/05 03:04:38;;;;;;;3.25;1.00;;;18.00;54.20;;;;;;6260118;23;20159;-83
2022/04/05 03:07:07;;;;;;;4.78;1.35;;;18.00;54.00;;;;;;6133358;23;20203;-84
2022/04/05 03:09:37;;;;;;;2.30;0.80;;;18.00;54.10;;;;;;6158279;23;20287;-83
2022/04/05 03:12:07;;;;;;;3.83;1.00;;;18.00;54.20;;;;;;6158287;23;20146;-83
2022/04/05 03:14:39;;;;;;;2.72;1.00;;;18.00;54.20;;;;;;6158134;23;20149;-83
2022/04/05 03:17:09;;;;;;;2.10;1.17;;;18.00;54.30;;;;;;6260303;23;20136;-84
2022/04/05 03:19:39;;;;;;;4.25;1.00;;;18.00;54.20;;;;;;6182848;23;20161;-83
2022/04/05 03:22:10;;;;;;;3.58;1.00;;;18.00;54.20;;;;;;6182313;23;20244;-85
2022/04/05 03:24:39;;;;;;;3.45;1.25;;;18.00;54.30;;;;;;6182869;23;20164;-83
2022/04/05 03:27:10;;;;;;;3.80;1.00;;;17.90;54.10;;;;;;6157416;23;20153;-84
2022/04/05 03:29:36;;;;;;;3.13;1.10;;;18.00;54.20;;;;;;6158049;23;20181;-83
2022/04/05 03:32:02;;;;;;;2.72;1.10;;;18.00;54.20;;;;;;6232049;23;20189;-83
2022/04/05 03:34:32;;;;;;;2.72;1.10;;;18.00;54.20;;;;;;6209103;23;20208;-84
2022/04/05 03:36:58;;;;;;;4.22;1.50;;;18.00;54.20;;;;;;6181939;23;20149;-83
2022/04/05 03:39:24;;;;;;;3.72;1.30;;;18.00;54.20;;;;;;6233262;23;20157;-84
2022/04/05 03:41:50;;;;;;;3.65;1.30;;;18.00;54.10;;;;;;6233727;23;20141;-84
2022/04/05 03:44:22;;;;;;;3.25;1.10;;;18.00;53.50;;;;;;6232896;23;20205;-83
2022/04/05 03:46:47;;;;;;;4.90;1.02;;;18.00;54.00;;;;;;6208194;23;20138;-84
2022/04/05 03:49:17;;;;;;;2.80;0.88;;;17.90;53.80;;;;;;6233560;23;20212;-84
2022/04/05 03:51:43;;;;;;;3.70;1.00;;;18.00;54.20;;;;;;6157385;23;20149;-84
2022/04/05 03:54:10;;;;;;;3.70;1.10;;;18.00;54.40;;;;;;6231961;23;20461;-84
2022/04/05 03:56:36;;;;;;;4.15;1.17;;;17.90;54.10;;;;;;6258868;23;20221;-85
2022/04/05 03:59:02;;;;;;;4.65;0.98;;;17.90;54.10;;;;;;6232444;23;20191;-84
2022/04/05 04:01:28;;;;;;;2.83;1.20;;;17.90;54.20;;;;;;6232893;23;20134;-83
2022/04/05 04:04:02;;;;;;;2.47;0.90;;;17.90;54.20;;;;;;6233111;23;20142;-84
2022/04/05 04:06:27;;;;;;;5.00;0.98;;;18.00;54.30;;;;;;6158576;23;20173;-83
2022/04/05 04:08:59;;;;;;;3.75;0.93;;;18.00;54.20;;;;;;6232881;23;20613;-83
2022/04/05 04:11:34;;;;;;;2.90;1.00;;;18.00;54.30;;;;;;6181785;23;20208;-84
2022/04/05 04:14:00;;;;;;;1.83;0.90;;;18.00;54.20;;;;;;6157529;23;20159;-84
2022/04/05 04:16:29;;;;;;;1.88;1.08;;;18.00;55.00;;;;;;6233023;23;20181;-84
2022/04/05 04:19:01;;;;;;;3.75;0.80;;;17.90;54.20;;;;;;6183463;23;20209;-84
2022/04/05 04:21:34;;;;;;;2.45;0.82;;;17.90;53.50;;;;;;6134005;23;20177;-84
2022/04/05 04:24:00;;;;;;;5.28;1.13;;;17.90;54.20;;;;;;6182504;23;20169;-83
2022/04/05 04:26:26;;;;;;;4.65;0.90;;;18.00;53.90;;;;;;6259455;23;20201;-83
2022/04/05 04:28:59;;;;;;;3.20;0.90;;;18.00;54.10;;;;;;6233542;23;20177;-84
2022/04/05 04:31:25;;;;;;;1.95;0.80;;;17.90;54.10;;;;;;6159782;23;20189;-83
2022/04/05 04:33:55;;;;;;;2.30;1.10;;;18.00;54.40;;;;;;6233911;23;20161;-84
2022/04/05 04:36:21;;;;;;;4.70;0.90;;;18.00;54.50;;;;;;6157968;23;20180;-84
2022/04/05 04:38:54;;;;;;;3.63;1.20;;;18.00;53.50;;;;;;6233266;23;20145;-84
2022/04/05 04:41:28;;;;;;;4.95;1.10;;;18.00;53.60;;;;;;6158402;23;20156;-83
2022/04/05 04:43:54;;;;;;;1.23;0.77;;;18.00;53.90;;;;;;6159276;23;20177;-83
2022/04/05 04:46:20;;;;;;;1.42;0.90;;;18.00;53.70;;;;;;6234591;23;20566;-84
2022/04/05 04:48:50;;;;;;;1.67;0.90;;;18.00;54.10;;;;;;6234827;23;20177;-85
2022/04/05 04:51:16;;;;;;;3.58;1.08;;;18.00;53.90;;;;;;6184104;23;20149;-84
2022/04/05 04:53:45;;;;;;;2.25;1.15;;;18.00;53.60;;;;;;6234755;23;20553;-84
2022/04/05 04:56:15;;;;;;;3.10;1.00;;;18.10;53.80;;;;;;6158919;23;20149;-84
2022/04/05 04:58:41;;;;;;;1.60;0.82;;;18.00;53.80;;;;;;6155450;23;20149;-84
2022/04/05 05:01:13;;;;;;;3.10;1.05;;;18.10;53.00;;;;;;6257283;23;20129;-84
2022/04/05 05:03:43;;;;;;;3.25;1.15;;;18.10;53.50;;;;;;6154985;23;20211;-85
2022/04/05 05:06:13;;;;;;;1.85;0.82;;;18.10;53.70;;;;;;6133005;23;20649;-84
2022/04/05 05:08:42;;;;;;;3.20;1.08;;;18.10;53.20;;;;;;6156045;23;20199;-84
2022/04/05 05:11:09;;;;;;;3.58;1.05;;;18.10;53.20;;;;;;6133037;23;20150;-84
2022/04/05 05:13:39;;;;;;;3.25;1.05;;;18.10;53.20;;;;;;6258721;23;20141;-84
2022/04/05 05:16:05;;;;;;;2.03;0.85;;;18.10;53.00;;;;;;6157641;23;20243;-84
2022/04/05 05:18:30;;;;;;;3.75;1.10;;;18.20;53.00;;;;;;6232705;23;20137;-84
2022/04/05 05:20:56;;;;;;;1.38;0.77;;;18.10;53.20;;;;;;6207944;23;20134;-84
2022/04/05 05:23:26;;;;;;;1.90;1.20;;;18.20;52.50;;;;;;6199075;23;20133;-86
2022/04/05 05:25:55;;;;;;;3.45;0.98;;;18.20;53.10;;;;;;6150772;23;20154;-88
2022/04/05 05:28:23;;;;;;;2.38;0.73;;;18.20;52.30;;;;;;6172550;23;20236;-86
2022/04/05 05:30:49;;;;;;;2.67;0.85;;;18.20;52.30;;;;;;6169407;23;20189;-86
2022/04/05 05:33:16;;;;;;;3.45;0.95;;;18.20;52.50;;;;;;6220879;23;20207;-85
2022/04/05 05:35:42;;;;;;;3.60;1.00;;;18.20;53.00;;;;;;6145069;23;20164;-86
2022/04/05 05:38:10;;;;;;;2.17;1.27;;;18.20;52.30;;;;;;6220241;23;20146;-84
2022/04/05 05:40:35;;;;;;;3.22;1.17;;;18.20;52.60;;;;;;6195616;23;20138;-85
2022/04/05 05:43:03;;;;;;;3.55;1.13;;;18.20;52.40;;;;;;6195000;23;20287;-85
2022/04/05 05:45:30;;;;;;;4.45;0.90;;;18.20;52.30;;;;;;6195250;23;20208;-85
2022/04/05 05:47:58;;;;;;;4.00;0.93;;;18.30;52.80;;;;;;6170841;23;20225;-85
2022/04/05 05:50:25;;;;;;;2.25;0.90;;;18.30;52.70;;;;;;6220084;23;20158;-85
2022/04/05 05:52:50;;;;;;;2.15;1.15;;;18.20;52.90;;;;;;6220009;23;20573;-84
2022/04/05 05:55:17;;;;;;;2.38;0.80;;;18.30;53.00;;;;;;6220122;23;20179;-87
2022/04/05 05:57:42;;;;;;;4.75;0.90;;;18.30;53.20;;;;;;6170411;23;20146;-86
2022/04/05 06:00:17;;;;;;;1.60;0.80;;;18.30;53.20;;;;;;6195992;23;20228;-86
2022/04/05 06:02:47;;;;;;;3.28;0.90;;;18.20;53.00;;;;;;6126060;23;20148;-85
2022/04/05 06:05:15;;;;;;;1.95;1.00;;;18.20;53.10;;;;;;6145297;23;20581;-86
2022/04/05 06:07:45;;;;;;;2.22;0.80;;;18.20;53.20;;;;;;6145234;23;20496;-88
2022/04/05 06:10:17;;;;;;;1.23;0.73;;;18.30;53.10;;;;;;6120968;23;20235;-87
2022/04/05 06:12:45;;;;;;;2.28;0.90;;;18.20;52.90;;;;;;6145045;23;20153;-87
2022/04/05 06:15:13;;;;;;;3.10;1.00;;;18.20;52.90;;;;;;6169801;23;20172;-85
2022/04/05 06:17:42;;;;;;;2.28;0.90;;;18.30;52.60;;;;;;6169936;23;20153;-86
2022/04/05 06:20:16;;;;;;;2.30;0.93;;;18.30;52.70;;;;;;6170104;23;20157;-86
2022/04/05 06:22:48;;;;;;;2.50;1.10;;;18.30;52.40;;;;;;6170289;23;20184;-87
2022/04/05 06:25:20;;;;;;;1.90;0.90;;;18.30;52.50;;;;;;6146216;23;20164;-85
2022/04/05 06:27:46;;;;;;;1.30;0.75;;;18.30;51.90;;;;;;6170735;23;20149;-86
2022/04/05 06:30:22;;;;;;;5.25;0.93;;;18.30;52.40;;;;;;6145279;23;20188;-86
2022/04/05 06:32:48;;;;;;;1.45;0.70;;;18.30;52.20;;;;;;6119726;23;20192;-88
2022/04/05 06:35:15;;;;;;;1.05;0.80;;;18.30;52.20;;;;;;6144807;23;20232;-85
2022/04/05 06:37:44;;;;;;;4.43;0.82;;;18.30;51.40;;;;;;6169373;23;20157;-87
2022/04/05 06:40:12;;;;;;;2.10;0.70;;;18.40;51.90;;;;;;6146469;23;20159;-86
2022/04/05 06:42:42;;;;;;;0.93;0.75;;;18.30;51.60;;;;;;6219881;23;20136;-86
2022/04/05 06:45:12;;;;;;;1.95;0.77;;;18.30;51.50;;;;;;6197671;23;20157;-87
2022/04/05 06:47:42;;;;;;;1.92;0.70;;;18.30;52.30;;;;;;6219513;23;20137;-85
2022/04/05 06:50:09;;;;;;;1.73;0.77;;;18.30;51.50;;;;;;6143301;23;20254;-85
2022/04/05 06:52:37;;;;;;;1.85;0.80;;;18.40;51.70;;;;;;6194585;23;20148;-87
2022/04/05 06:55:08;;;;;;;2.17;0.70;;;18.30;51.40;;;;;;6219791;23;20148;-86
2022/04/05 06:57:34;;;;;;;1.52;0.80;;;18.40;51.90;;;;;;6144748;23;20176;-87
2022/04/05 07:00:00;;;;;;;1.02;0.60;;;18.30;50.70;;;;;;6219707;23;20256;-85
2022/04/05 07:02:26;;;;;;;1.85;0.90;;;18.30;51.60;;;;;;6219372;23;20145;-86
2022/04/05 07:04:52;;;;;;;1.00;0.70;;;18.40;51.40;;;;;;6219403;23;20144;-86
2022/04/05 07:07:18;;;;;;;1.20;0.70;;;18.30;51.20;;;;;;6246302;23;20130;-86
2022/04/05 07:09:47;;;;;;;3.13;1.27;;;18.30;50.70;;;;;;6219266;23;20272;-86
2022/04/05 07:12:13;;;;;;;2.20;0.77;;;18.40;50.90;;;;;;6171365;23;20195;-85
2022/04/05 07:14:39;;;;;;;2.67;0.70;;;18.40;50.90;;;;;;6220672;23;20137;-87
2022/04/05 07:17:09;;;;;;;1.30;0.60;;;18.40;51.60;;;;;;6220792;23;20489;-86
2022/04/05 07:19:35;;;;;;;2.33;0.80;;;18.40;51.90;;;;;;6148343;23;20160;-85
2022/04/05 07:22:02;;;;;;;1.50;0.80;;;18.40;51.30;;;;;;6224965;23;20142;-87
2022/04/05 07:24:29;;;;;;;1.80;0.70;;;18.40;51.20;;;;;;6221686;23;20168;-86
2022/04/05 07:26:55;;;;;;;0.95;0.65;;;18.40;51.10;;;;;;6220973;23;20138;-87
2022/04/05 07:29:20;;;;;;;2.78;0.80;;;18.40;50.70;;;;;;6220881;23;20207;-87
2022/04/05 07:31:46;;;;;;;1.10;0.82;;;18.40;50.40;;;;;;6170502;23;20185;-86
2022/04/05 07:34:12;;;;;;;0.80;0.70;;;18.50;50.00;;;;;;6197018;23;20156;-87
2022/04/05 07:36:42;;;;;;;1.02;0.80;;;18.50;49.90;;;;;;6220668;23;20152;-86
2022/04/05 07:39:12;;;;;;;2.17;0.70;;;18.50;49.80;;;;;;6145982;23;20206;-85
2022/04/05 07:41:42;;;;;;;1.48;0.73;;;18.50;50.40;;;;;;6173162;23;20593;-88
2022/04/05 07:44:12;;;;;;;1.25;0.73;;;18.50;50.40;;;;;;6145215;23;20157;-87
2022/04/05 07:46:38;;;;;;;1.40;0.65;;;18.50;50.00;;;;;;6121387;23;20175;-86
2022/04/05 07:49:04;;;;;;;1.63;1.00;;;18.50;50.80;;;;;;6222245;23;20173;-87
2022/04/05 07:51:30;;;;;;;1.85;0.68;;;18.50;50.60;;;;;;6220958;23;20140;-88
2022/04/05 07:53:57;;;;;;;1.85;0.80;;;18.50;50.40;;;;;;6224478;23;20137;-85
2022/04/05 07:56:23;;;;;;;2.03;0.75;;;18.50;50.50;;;;;;6223981;23;20141;-88
2022/04/05 07:58:48;;;;;;;1.55;0.70;;;18.50;50.70;;;;;;6223255;23;20529;-88
2022/04/05 08:01:14;;;;;;;2.47;0.75;;;18.50;51.00;;;;;;6220856;23;20508;-86
2022/04/05 08:03:45;;;;;;;1.20;0.77;;;18.60;49.40;;;;;;6221115;23;20141;-88
2022/04/05 08:06:11;;;;;;;4.82;0.98;;;18.50;48.90;;;;;;6146411;23;20488;-88
2022/04/05 08:08:41;;;;;;;1.88;0.85;;;18.60;49.80;;;;;;6222008;23;20130;-87
2022/04/05 08:11:07;;;;;;;2.58;0.63;;;18.60;50.40;;;;;;6171402;23;20153;-87
2022/04/05 08:13:37;;;;;;;0.82;0.70;;;18.60;49.50;;;;;;6196494;23;20161;-86
2022/04/05 08:16:03;;;;;;;2.00;1.15;;;18.70;49.60;;;;;;6121661;23;20145;-87
2022/04/05 08:18:30;;;;;;;1.02;0.55;;;18.70;49.00;;;;;;6222580;23;20168;-86
2022/04/05 08:21:00;;;;;;;1.45;0.98;;;18.70;49.10;;;;;;6197781;23;20224;-85
2022/04/05 08:23:30;;;;;;;1.98;0.85;;;18.80;48.90;;;;;;6147439;23;20479;-88
2022/04/05 08:25:56;;;;;;;2.25;0.70;;;18.70;49.10;;;;;;6147649;23;20153;-86
2022/04/05 08:28:22;;;;;;;0.70;0.70;;;18.80;48.30;;;;;;6224112;23;20169;-89
2022/04/05 08:30:48;;;;;;;0.82;0.60;;;18.80;49.10;;;;;;6223266;23;20229;-87
2022/04/05 08:33:18;;;;;;;3.53;1.10;;;18.80;48.70;;;;;;6197946;23;20522;-87
2022/04/05 08:35:43;;;;;;;2.35;0.80;;;18.80;48.50;;;;;;6147981;23;20187;-89
2022/04/05 08:38:10;;;;;;;1.48;0.70;;;18.80;49.40;;;;;;6196709;23;20144;-86
2022/04/05 08:40:36;;;;;;;2.05;0.75;;;18.80;49.00;;;;;;6222029;23;20672;-88
2022/04/05 08:43:08;;;;;;;0.88;0.65;;;18.80;48.80;;;;;;6222393;23;20165;-87
2022/04/05 08:45:35;;;;;;;0.90;0.60;;;18.80;49.80;;;;;;6146692;23;20161;-87
2022/04/05 08:48:10;;;;;;;3.28;0.80;;;18.80;49.70;;;;;;6222699;23;20145;-86
2022/04/05 08:50:36;;;;;;;1.40;0.73;;;18.80;49.90;;;;;;6147397;23;20188;-86
2022/04/05 08:53:03;;;;;;;3.08;0.77;;;18.80;49.10;;;;;;6222920;23;20173;-88
2022/04/05 08:55:29;;;;;;;2.53;0.70;;;18.80;49.70;;;;;;6198250;23;20144;-87
2022/04/05 08:57:59;;;;;;;3.35;0.98;;;18.80;49.30;;;;;;6221663;23;20145;-87
2022/04/05 09:00:25;;;;;;;2.88;0.88;;;18.80;49.80;;;;;;6151683;23;20234;-86
2022/04/05 09:02:59;;;;;;;0.73;0.60;;;18.80;49.10;;;;;;6231388;23;20137;-85
2022/04/05 09:05:27;;;;;;;0.95;0.80;;;18.80;49.10;;;;;;6205182;23;20211;-85
2022/04/05 09:07:53;;;;;;;3.08;0.90;;;18.80;49.80;;;;;;6229512;23;20173;-87
2022/04/05 09:10:25;;;;;;;1.25;0.73;;;18.80;49.40;;;;;;6232873;23;20169;-85
2022/04/05 09:12:51;;;;;;;1.63;0.70;;;18.80;49.20;;;;;;6180604;23;20149;-88
2022/04/05 09:15:25;;;;;;;2.85;0.80;;;18.80;49.00;;;;;;6228916;23;20152;-88
2022/04/05 09:17:51;;;;;;;2.30;0.80;;;18.80;49.00;;;;;;6199465;23;20164;-86
2022/04/05 09:20:19;;;;;;;1.75;0.60;;;18.80;48.70;;;;;;6203597;23;20142;-85
2022/04/05 09:22:45;;;;;;;1.63;1.00;;;18.80;49.20;;;;;;6200233;23;20145;-88
2022/04/05 09:25:13;;;;;;;3.08;0.80;;;18.90;48.00;;;;;;6227955;23;20137;-87
2022/04/05 09:27:52;;;;;;;0.85;0.60;;;18.90;49.20;;;;;;6207459;23;20165;-85
2022/04/05 09:30:19;;;;;;;0.80;0.63;;;18.90;48.50;;;;;;6207109;23;20165;-84
2022/04/05 09:32:48;;;;;;;1.63;0.90;;;18.90;48.50;;;;;;6255713;23;20184;-83
2022/04/05 09:35:15;;;;;;;0.95;0.60;;;18.90;49.00;;;;;;6225457;23;20152;-85
2022/04/05 09:37:42;;;;;;;3.22;0.93;;;18.90;48.60;;;;;;6199534;23;20148;-86
2022/04/05 09:40:22;;;;;;;1.98;0.80;;;18.90;49.20;;;;;;6224994;23;20138;-88
2022/04/05 09:43:05;;;;;;;2.05;0.88;;;18.80;48.70;;;;;;6198255;23;20472;-87
2022/04/05 09:45:53;;;;;;;2.13;0.85;;;18.90;49.30;;;;;;6226070;23;20141;-85
2022/04/05 09:48:26;;;;;;;2.50;0.95;;;18.80;49.20;;;;;;6181364;23;20241;-86
2022/04/05 09:51:11;;;;;;;3.28;0.93;;;18.80;49.20;;;;;;6155510;23;20185;-83
2022/04/05 09:53:43;;;;;;;1.45;0.75;;;18.80;48.80;;;;;;6230928;23;20126;-85
2022/04/05 09:56:15;;;;;;;2.22;0.75;;;18.80;48.80;;;;;;6206047;23;20511;-86
2022/04/05 09:58:51;;;;;;;2.05;0.93;;;18.80;49.40;;;;;;6203134;23;20172;-85
2022/04/05 10:01:23;;;;;;;2.28;0.90;;;18.80;49.30;;;;;;6179119;23;20446;-87
2022/04/05 10:04:08;;;;;;;1.20;0.95;;;18.80;49.50;;;;;;6131094;23;20177;-84
2022/04/05 10:06:44;;;;;;;2.47;0.90;;;18.80;49.10;;;;;;6176064;23;20589;-84
2022/04/05 10:09:15;;;;;;;0.75;0.63;;;18.80;49.50;;;;;;6175595;23;20605;-86
2022/04/05 10:11:45;;;;;;;1.65;0.90;;;18.80;49.20;;;;;;6177042;23;20160;-85
2022/04/05 10:14:20;;;;;;;1.38;0.85;;;18.80;48.70;;;;;;6150643;23;20154;-88
2022/04/05 10:16:49;;;;;;;1.20;0.73;;;18.90;49.00;;;;;;6174663;23;20164;-86
2022/04/05 10:19:22;;;;;;;1.45;0.85;;;18.90;48.60;;;;;;6148088;23;20180;-87
2022/04/05 10:21:50;;;;;;;0.85;0.57;;;19.00;48.70;;;;;;6172830;23;20159;-86
2022/04/05 10:24:20;;;;;;;1.23;0.88;;;18.90;48.60;;;;;;6146051;23;20153;-87
2022/04/05 10:26:49;;;;;;;0.93;0.70;;;18.90;48.80;;;;;;6171877;23;20192;-87
2022/04/05 10:29:15;;;;;;;1.25;0.80;;;18.90;49.00;;;;;;6150201;23;20185;-85
2022/04/05 10:32:02;;;;;;;1.70;0.80;;;18.90;49.10;;;;;;6223384;23;20200;-86
2022/04/05 10:34:30;;;;;;;1.65;0.85;;;18.90;49.00;;;;;;6200754;23;20136;-85
2022/04/05 10:37:18;;;;;;;2.05;1.00;;;18.80;49.40;;;;;;6224008;23;20133;-87
2022/04/05 10:40:17;;;;;;;1.88;0.80;;;18.80;49.40;;;;;;6148774;23;20157;-88
2022/04/05 10:42:52;;;;;;;1.67;0.80;;;18.80;49.10;;;;;;6223823;23;20172;-86
2022/04/05 10:45:28;;;;;;;3.15;1.10;;;18.80;49.40;;;;;;6148951;23;20157;-87
2022/04/05 10:48:08;;;;;;;1.30;0.80;;;18.80;49.10;;;;;;6150320;23;20582;-86
2022/04/05 10:50:45;;;;;;;1.77;0.70;;;18.90;49.00;;;;;;6106598;23;20188;-87
2022/04/05 10:53:20;;;;;;;1.60;0.93;;;18.90;48.90;;;;;;6149012;23;20149;-86
2022/04/05 10:56:11;;;;;;;1.27;0.80;;;18.90;48.80;;;;;;6151228;23;20595;-88
2022/04/05 10:59:05;;;;;;;1.90;0.60;;;18.90;49.10;;;;;;6199729;23;20495;-86
2022/04/05 11:01:43;;;;;;;1.52;0.85;;;18.80;49.10;;;;;;6124834;23;20209;-86
2022/04/05 11:04:31;;;;;;;1.33;0.98;;;18.80;49.10;;;;;;6177259;23;20245;-87
2022/04/05 11:07:11;;;;;;;1.52;0.90;;;18.90;48.80;;;;;;6229896;23;20126;-83
2022/04/05 11:09:48;;;;;;;2.00;0.70;;;18.90;49.20;;;;;;6156311;23;20257;-84
2022/04/05 11:12:26;;;;;;;1.77;0.80;;;18.90;48.80;;;;;;6176417;23;20148;-86
2022/04/05 11:15:04;;;;;;;1.00;0.70;;;18.90;49.10;;;;;;6171308;23;20160;-85
2022/04/05 11:17:33;;;;;;;1.38;0.80;;;18.90;49.20;;;;;;6150935;23;20157;-86
2022/04/05 11:20:03;;;;;;;1.05;0.70;;;18.80;49.50;;;;;;6222117;23;20157;-87
2022/04/05 11:22:34;;;;;;;1.80;0.77;;;18.80;49.10;;;;;;6146788;23;20160;-88
2022/04/05 11:25:07;;;;;;;1.50;0.70;;;18.80;49.00;;;;;;6148242;23;20219;-86
2022/04/05 11:27:38;;;;;;;1.15;0.70;;;18.90;48.90;;;;;;6124553;23;20452;-87
2022/04/05 11:30:37;;;;;;;1.25;0.95;;;18.80;49.10;;;;;;6122202;23;20185;-85
2022/04/05 11:33:45;;;;;;;1.67;1.08;;;18.80;49.20;;;;;;6195999;23;20189;-86
2022/04/05 11:36:21;;;;;;;1.90;0.75;;;18.80;49.30;;;;;;6138249;23;20159;-85
2022/04/05 11:38:54;;;;;;;2.38;0.88;;;18.80;49.00;;;;;;6174471;23;20183;-87
2022/04/05 11:41:22;;;;;;;2.40;0.85;;;18.80;49.30;;;;;;6145701;23;20154;-85
2022/04/05 11:43:52;;;;;;;1.15;0.80;;;18.90;49.30;;;;;;6146049;23;20236;-85
2022/04/05 11:46:21;;;;;;;1.20;0.80;;;18.80;49.40;;;;;;6145376;23;20153;-86
2022/04/05 11:48:51;;;;;;;1.90;0.80;;;18.80;49.50;;;;;;6170011;23;20142;-86
2022/04/05 11:51:23;;;;;;;0.98;0.70;;;18.80;49.50;;;;;;6170613;23;20149;-87
2022/04/05 11:53:52;;;;;;;2.70;0.90;;;18.80;49.40;;;;;;6123040;23;20153;-86
2022/04/05 11:56:22;;;;;;;0.82;0.70;;;18.80;49.10;;;;;;6146677;23;20520;-87
2022/04/05 11:58:53;;;;;;;0.98;0.60;;;18.80;49.10;;;;;;6146711;23;20474;-87
2022/04/05 12:01:28;;;;;;;1.65;0.98;;;18.80;49.00;;;;;;6146628;23;20153;-84
2022/04/05 12:04:09;;;;;;;1.65;0.73;;;18.80;49.10;;;;;;6149235;23;20612;-87
2022/04/05 12:06:39;;;;;;;1.65;0.65;;;18.80;49.10;;;;;;6148355;23;20180;-87
2022/04/05 12:09:10;;;;;;;1.25;0.60;;;18.80;48.80;;;;;;6147301;23;20176;-86
2022/04/05 12:11:41;;;;;;;1.60;0.88;;;18.80;49.10;;;;;;6172746;23;20153;-85
2022/04/05 12:14:13;;;;;;;1.73;0.85;;;18.80;48.70;;;;;;6173136;23;20180;-87
2022/04/05 12:16:49;;;;;;;1.38;0.70;;;18.90;49.20;;;;;;6146898;23;20153;-88
2022/04/05 12:19:21;;;;;;;1.80;0.70;;;18.90;48.20;;;;;;6172263;23;20163;-86
2022/04/05 12:21:56;;;;;;;1.42;0.77;;;18.90;48.90;;;;;;6149307;23;20584;-88
2022/04/05 12:24:23;;;;;;;2.95;0.70;;;18.90;48.10;;;;;;6151241;23;20153;-85
2022/04/05 12:26:51;;;;;;;1.30;0.60;;;18.90;48.50;;;;;;6225463;23;20130;-84
2022/04/05 12:29:17;;;;;;;1.20;0.80;;;18.90;48.50;;;;;;6150848;23;20177;-86
2022/04/05 12:31:43;;;;;;;1.45;0.75;;;18.80;49.00;;;;;;6201319;23;20195;-87
2022/04/05 12:37:51;;;;;;;2.55;0.82;;;18.90;49.10;;;;;;6252236;23;20137;-84
2022/04/05 12:40:28;;;;;;;1.23;0.73;;;18.90;49.20;;;;;;6149168;23;20480;-85
2022/04/05 12:42:56;;;;;;;1.48;0.70;;;18.80;48.70;;;;;;6172448;23;20228;-84
2022/04/05 12:45:30;;;;;;;0.80;0.70;;;18.80;48.80;;;;;;6145879;23;20172;-86
2022/04/05 12:48:09;;;;;;;1.98;0.77;;;18.80;48.80;;;;;;6147663;23;20156;-87
2022/04/05 12:50:45;;;;;;;0.70;0.70;;;18.90;48.20;;;;;;6155934;23;20177;-84
2022/04/05 12:53:13;;;;;;;1.85;0.68;;;18.90;48.00;;;;;;6129666;23;20152;-87
2022/04/05 12:55:42;;;;;;;1.40;0.60;;;18.90;48.80;;;;;;6180992;23;20228;-84
2022/04/05 12:58:11;;;;;;;1.85;0.70;;;18.90;48.70;;;;;;6180147;23;20145;-84
2022/04/05 13:00:45;;;;;;;0.93;0.70;;;18.90;48.70;;;;;;6152390;23;20612;-85
2022/04/05 13:03:12;;;;;;;1.80;0.80;;;18.90;47.90;;;;;;6124416;23;20157;-85
2022/04/05 13:08:29;;;;;;;4.63;0.90;;;18.80;49.80;;;;;;6209952;23;20146;-87